createdAt,value
2023-11-06T00:00:02.511Z, 42.98
2023-11-06T00:01:02.463Z, 42.90
2023-11-06T00:02:02.556Z, 42.91
2023-11-06T00:03:02.607Z, 42.92
2023-11-06T00:04:02.528Z, 42.89
2023-11-06T00:05:02.560Z, 42.85
2023-11-06T00:06:02.544Z, 42.85
2023-11-06T00:07:02.522Z, 42.82
2023-11-06T00:08:02.552Z, 42.83
2023-11-06T00:09:02.520Z, 42.75
2023-11-06T00:10:02.584Z, 42.76
2023-11-06T00:11:02.624Z, 42.73
2023-11-06T00:12:02.583Z, 42.71
2023-11-06T00:13:02.643Z, 42.66
2023-11-06T00:14:02.629Z, 42.66
2023-11-06T00:15:02.620Z, 42.60
2023-11-06T00:16:07.653Z, 42.54
2023-11-06T00:17:02.641Z, 42.50
2023-11-06T00:18:02.739Z, 42.51
2023-11-06T00:19:02.681Z, 42.48
2023-11-06T00:20:02.769Z, 42.44
2023-11-06T00:21:02.725Z, 42.38
2023-11-06T00:22:02.746Z, 42.36
2023-11-06T00:23:02.809Z, 42.31
2023-11-06T00:24:02.727Z, 42.30
2023-11-06T00:25:02.802Z, 42.27
2023-11-06T00:26:02.820Z, 42.34
2023-11-06T00:27:02.829Z, 42.28
2023-11-06T00:28:02.823Z, 42.20
2023-11-06T00:29:02.839Z, 42.17
2023-11-06T00:30:02.833Z, 42.13
2023-11-06T00:31:02.834Z, 42.15
2023-11-06T00:32:02.982Z, 42.12
2023-11-06T00:33:02.978Z, 42.07
2023-11-06T00:34:02.949Z, 42.00
2023-11-06T00:35:02.950Z, 42.04
2023-11-06T00:36:02.947Z, 42.02
2023-11-06T00:37:02.937Z, 42.00
2023-11-06T00:38:02.995Z, 41.93
2023-11-06T00:39:02.938Z, 41.90
2023-11-06T00:40:05.549Z, 41.88
2023-11-06T00:41:02.959Z, 41.86
2023-11-06T00:42:03.033Z, 41.81
2023-11-06T00:43:02.976Z, 41.84
2023-11-06T00:44:03.041Z, 41.77
2023-11-06T00:45:03.054Z, 41.71
2023-11-06T00:46:03.007Z, 41.61
2023-11-06T00:47:03.153Z, 41.59
2023-11-06T00:48:03.124Z, 41.52
2023-11-06T00:49:03.063Z, 41.50
2023-11-06T00:50:03.076Z, 41.49
2023-11-06T00:51:03.041Z, 41.46
2023-11-06T00:52:03.093Z, 41.43
2023-11-06T00:53:03.083Z, 41.41
2023-11-06T00:54:03.128Z, 41.40
2023-11-06T00:55:03.133Z, 41.29
2023-11-06T00:56:03.126Z, 41.29
2023-11-06T00:57:03.113Z, 41.24
2023-11-06T00:58:03.132Z, 41.23
2023-11-06T00:59:03.231Z, 41.23
2023-11-06T01:00:03.173Z, 41.21
2023-11-06T01:01:03.220Z, 41.11
2023-11-06T01:02:03.221Z, 41.11
2023-11-06T01:03:03.234Z, 41.05
2023-11-06T01:04:03.171Z, 41.06
2023-11-06T01:05:03.310Z, 41.08
2023-11-06T01:06:03.323Z, 41.07
2023-11-06T01:07:03.248Z, 40.96
2023-11-06T01:08:03.291Z, 40.94
2023-11-06T01:09:03.247Z, 40.95
2023-11-06T01:10:03.249Z, 40.91
2023-11-06T01:11:03.345Z, 40.90
2023-11-06T01:12:03.300Z, 40.84
2023-11-06T01:13:03.345Z, 40.87
2023-11-06T01:14:03.367Z, 40.86
2023-11-06T01:15:03.325Z, 40.80
2023-11-06T01:16:03.324Z, 40.78
2023-11-06T01:17:03.343Z, 40.73
2023-11-06T01:18:03.378Z, 40.69
2023-11-06T01:19:03.336Z, 40.65
2023-11-06T01:20:03.437Z, 40.60
2023-11-06T01:21:03.396Z, 40.59
2023-11-06T01:22:06.203Z, 40.54
2023-11-06T01:23:03.432Z, 40.51
2023-11-06T01:24:03.407Z, 40.47
2023-11-06T01:25:03.408Z, 40.46
2023-11-06T01:26:03.501Z, 40.38
2023-11-06T01:27:03.459Z, 40.40
2023-11-06T01:28:03.500Z, 40.38
2023-11-06T01:29:03.504Z, 40.34
2023-11-06T01:30:03.538Z, 40.31
2023-11-06T01:31:03.523Z, 40.31
2023-11-06T01:32:03.622Z, 40.30
2023-11-06T01:33:03.621Z, 40.25
2023-11-06T01:34:03.548Z, 40.17
2023-11-06T01:35:03.606Z, 40.22
2023-11-06T01:36:03.559Z, 40.20
2023-11-06T01:37:03.559Z, 40.21
2023-11-06T01:38:03.607Z, 40.15
2023-11-06T01:39:03.585Z, 40.12
2023-11-06T01:40:03.612Z, 40.05
2023-11-06T01:41:03.699Z, 39.99
2023-11-06T01:42:03.648Z, 40.04
2023-11-06T01:43:03.672Z, 40.01
2023-11-06T01:44:03.679Z, 39.94
2023-11-06T01:45:03.668Z, 39.93
2023-11-06T01:46:03.717Z, 39.90
2023-11-06T01:47:03.823Z, 39.86
2023-11-06T01:48:03.860Z, 39.88
2023-11-06T01:49:03.747Z, 39.85
2023-11-06T01:50:03.868Z, 39.89
2023-11-06T01:51:03.765Z, 39.85
2023-11-06T01:52:03.779Z, 39.86
2023-11-06T01:53:03.848Z, 39.84
2023-11-06T01:54:03.792Z, 39.82
2023-11-06T01:55:03.794Z, 39.81
2023-11-06T01:56:03.818Z, 39.72
2023-11-06T01:57:03.801Z, 39.68
2023-11-06T01:58:03.842Z, 39.69
2023-11-06T01:59:03.836Z, 39.73
2023-11-06T02:00:03.783Z, 39.64
2023-11-06T02:01:03.866Z, 39.63
2023-11-06T02:02:03.906Z, 39.60
2023-11-06T02:03:03.920Z, 39.59
2023-11-06T02:04:03.865Z, 39.56
2023-11-06T02:05:03.849Z, 39.54
2023-11-06T02:06:03.902Z, 39.52
2023-11-06T02:07:03.871Z, 39.53
2023-11-06T02:08:04.010Z, 39.49
2023-11-06T02:09:03.918Z, 39.45
2023-11-06T02:10:03.919Z, 39.46
2023-11-06T02:11:03.982Z, 39.45
2023-11-06T02:12:03.926Z, 39.38
2023-11-06T02:13:03.924Z, 39.31
2023-11-06T02:14:03.950Z, 39.34
2023-11-06T02:15:03.922Z, 39.33
2023-11-06T02:16:03.911Z, 39.30
2023-11-06T02:17:03.986Z, 39.34
2023-11-06T02:18:04.070Z, 39.27
2023-11-06T02:19:04.056Z, 39.23
2023-11-06T02:20:04.024Z, 39.23
2023-11-06T02:21:04.412Z, 39.23
2023-11-06T02:22:03.972Z, 39.23
2023-11-06T02:23:04.009Z, 39.16
2023-11-06T02:24:04.060Z, 39.07
2023-11-06T02:25:04.024Z, 39.08
2023-11-06T02:26:04.142Z, 39.06
2023-11-06T02:27:04.041Z, 39.02
2023-11-06T02:28:04.102Z, 38.99
2023-11-06T02:29:04.122Z, 39.00
2023-11-06T02:30:04.149Z, 38.96
2023-11-06T02:31:04.095Z, 38.92
2023-11-06T02:32:04.138Z, 38.92
2023-11-06T02:33:04.213Z, 38.91
2023-11-06T02:34:04.140Z, 38.92
2023-11-06T02:35:04.346Z, 38.89
2023-11-06T02:36:04.190Z, 38.86
2023-11-06T02:37:04.258Z, 38.84
2023-11-06T02:38:04.238Z, 38.83
2023-11-06T02:39:04.224Z, 38.83
2023-11-06T02:40:04.197Z, 38.84
2023-11-06T02:41:04.251Z, 38.85
2023-11-06T02:42:04.261Z, 38.82
2023-11-06T02:43:04.198Z, 38.82
2023-11-06T02:44:04.375Z, 38.76
2023-11-06T02:45:04.262Z, 38.72
2023-11-06T02:46:04.372Z, 38.74
2023-11-06T02:47:04.335Z, 38.69
2023-11-06T02:48:04.468Z, 38.64
2023-11-06T02:49:04.302Z, 38.66
2023-11-06T02:50:04.366Z, 38.62
2023-11-06T02:51:04.325Z, 38.61
2023-11-06T02:52:04.391Z, 38.62
2023-11-06T02:53:04.388Z, 38.64
2023-11-06T02:54:04.381Z, 38.60
2023-11-06T02:55:04.481Z, 38.54
2023-11-06T02:56:04.417Z, 38.52
2023-11-06T02:57:04.485Z, 38.54
2023-11-06T02:58:04.451Z, 38.51
2023-11-06T02:59:04.551Z, 38.50
2023-11-06T03:00:04.442Z, 38.45
2023-11-06T03:01:04.440Z, 38.43
2023-11-06T03:02:04.535Z, 38.48
2023-11-06T03:03:04.571Z, 38.48
2023-11-06T03:04:04.574Z, 38.43
2023-11-06T03:05:04.666Z, 38.40
2023-11-06T03:06:04.518Z, 38.41
2023-11-06T03:07:04.504Z, 38.38
2023-11-06T03:08:04.549Z, 38.34
2023-11-06T03:09:04.540Z, 38.29
2023-11-06T03:10:04.546Z, 38.32
2023-11-06T03:11:04.618Z, 38.29
2023-11-06T03:12:04.580Z, 38.22
2023-11-06T03:13:04.577Z, 38.28
2023-11-06T03:14:04.614Z, 38.26
2023-11-06T03:15:04.665Z, 38.26
2023-11-06T03:16:04.651Z, 38.21
2023-11-06T03:17:04.705Z, 38.12
2023-11-06T03:18:04.938Z, 38.11
2023-11-06T03:19:04.663Z, 38.08
2023-11-06T03:20:04.785Z, 38.09
2023-11-06T03:21:04.708Z, 38.07
2023-11-06T03:22:04.761Z, 38.11
2023-11-06T03:23:04.833Z, 38.13
2023-11-06T03:24:04.811Z, 38.05
2023-11-06T03:25:04.769Z, 38.04
2023-11-06T03:26:04.791Z, 38.02
2023-11-06T03:27:04.838Z, 38.01
2023-11-06T03:28:04.873Z, 38.03
2023-11-06T03:29:04.894Z, 37.94
2023-11-06T03:30:04.813Z, 37.90
2023-11-06T03:31:04.889Z, 37.88
2023-11-06T03:32:04.893Z, 37.90
2023-11-06T03:33:04.874Z, 37.82
2023-11-06T03:34:04.859Z, 37.81
2023-11-06T03:35:04.856Z, 37.80
2023-11-06T03:36:04.850Z, 37.83
2023-11-06T03:37:04.850Z, 37.81
2023-11-06T03:38:04.940Z, 37.75
2023-11-06T03:39:04.901Z, 37.70
2023-11-06T03:40:04.925Z, 37.69
2023-11-06T03:41:05.048Z, 37.67
2023-11-06T03:42:05.089Z, 37.65
2023-11-06T03:43:05.022Z, 37.65
2023-11-06T03:44:05.044Z, 37.61
2023-11-06T03:45:05.016Z, 37.58
2023-11-06T03:46:05.029Z, 37.53
2023-11-06T03:47:05.072Z, 37.54
2023-11-06T03:48:05.141Z, 37.56
2023-11-06T03:49:05.049Z, 37.53
2023-11-06T03:50:05.149Z, 37.51
2023-11-06T03:51:05.084Z, 37.49
2023-11-06T03:52:05.064Z, 37.49
2023-11-06T03:53:05.095Z, 37.44
2023-11-06T03:54:05.065Z, 37.38
2023-11-06T03:55:05.098Z, 37.38
2023-11-06T03:56:05.142Z, 37.38
2023-11-06T03:57:05.148Z, 37.40
2023-11-06T03:58:05.166Z, 37.40
2023-11-06T03:59:05.197Z, 37.43
2023-11-06T04:00:05.154Z, 37.39
2023-11-06T04:01:05.171Z, 37.37
2023-11-06T04:02:05.243Z, 37.37
2023-11-06T04:03:05.208Z, 37.34
2023-11-06T04:04:05.252Z, 37.34
2023-11-06T04:05:05.248Z, 37.28
2023-11-06T04:06:05.284Z, 37.31
2023-11-06T04:07:05.250Z, 37.30
2023-11-06T04:08:05.283Z, 37.24
2023-11-06T04:09:05.347Z, 37.19
2023-11-06T04:10:05.309Z, 37.16
2023-11-06T04:11:05.424Z, 37.16
2023-11-06T04:12:05.325Z, 37.18
2023-11-06T04:13:05.323Z, 37.16
2023-11-06T04:14:06.676Z, 37.11
2023-11-06T04:15:05.342Z, 37.11
2023-11-06T04:16:05.422Z, 37.12
2023-11-06T04:17:05.406Z, 37.06
2023-11-06T04:18:05.499Z, 37.06
2023-11-06T04:19:05.369Z, 37.02
2023-11-06T04:20:05.409Z, 37.00
2023-11-06T04:21:05.399Z, 37.02
2023-11-06T04:22:05.399Z, 36.96
2023-11-06T04:23:05.666Z, 36.95
2023-11-06T04:24:05.462Z, 36.93
2023-11-06T04:25:05.533Z, 36.91
2023-11-06T04:26:05.494Z, 36.90
2023-11-06T04:27:05.479Z, 36.88
2023-11-06T04:28:05.478Z, 36.88
2023-11-06T04:29:05.649Z, 36.83
2023-11-06T04:30:05.538Z, 36.82
2023-11-06T04:31:05.535Z, 37.05
2023-11-06T04:32:05.547Z, 38.37
2023-11-06T04:33:05.582Z, 38.82
2023-11-06T04:34:05.549Z, 38.78
2023-11-06T04:35:05.585Z, 38.65
2023-11-06T04:36:05.602Z, 38.09
2023-11-06T04:37:05.626Z, 37.16
2023-11-06T04:38:05.665Z, 36.31
2023-11-06T04:39:05.627Z, 35.62
2023-11-06T04:40:05.673Z, 35.10
2023-11-06T04:41:05.674Z, 34.60
2023-11-06T04:42:05.665Z, 34.12
2023-11-06T04:43:05.730Z, 33.78
2023-11-06T04:44:05.720Z, 33.47
2023-11-06T04:45:05.756Z, 33.08
2023-11-06T04:46:05.733Z, 33.17
2023-11-06T04:47:05.817Z, 37.71
2023-11-06T04:48:05.878Z, 42.77
2023-11-06T04:49:05.827Z, 44.44
2023-11-06T04:50:05.909Z, 42.55
2023-11-06T04:51:05.790Z, 40.25
2023-11-06T04:52:05.778Z, 38.32
2023-11-06T04:53:05.802Z, 36.79
2023-11-06T04:54:05.892Z, 35.17
2023-11-06T04:55:05.838Z, 33.09
2023-11-06T04:56:05.922Z, 31.05
2023-11-06T04:57:05.862Z, 30.00
2023-11-06T04:58:05.858Z, 29.70
2023-11-06T04:59:05.949Z, 32.07
2023-11-06T05:00:05.905Z, 37.68
2023-11-06T05:01:05.990Z, 42.25
2023-11-06T05:02:05.979Z, 45.52
2023-11-06T05:03:06.171Z, 44.84
2023-11-06T05:04:06.013Z, 43.46
2023-11-06T05:05:06.140Z, 42.26
2023-11-06T05:06:06.022Z, 40.97
2023-11-06T05:07:05.979Z, 39.74
2023-11-06T05:08:06.005Z, 38.70
2023-11-06T05:09:05.996Z, 37.79
2023-11-06T05:10:05.993Z, 37.01
2023-11-06T05:11:06.056Z, 36.29
2023-11-06T05:12:06.128Z, 35.55
2023-11-06T05:13:06.076Z, 34.65
2023-11-06T05:14:06.093Z, 33.73
2023-11-06T05:15:06.087Z, 32.82
2023-11-06T05:16:06.081Z, 32.12
2023-11-06T05:17:06.132Z, 35.21
2023-11-06T05:18:06.149Z, 41.98
2023-11-06T05:19:06.210Z, 47.08
2023-11-06T05:20:06.222Z, 47.19
2023-11-06T05:21:06.148Z, 45.99
2023-11-06T05:22:07.392Z, 45.33
2023-11-06T05:23:06.194Z, 44.73
2023-11-06T05:24:06.245Z, 44.03
2023-11-06T05:25:06.317Z, 43.37
2023-11-06T05:26:06.263Z, 42.74
2023-11-06T05:27:06.307Z, 42.17
2023-11-06T05:28:06.258Z, 41.65
2023-11-06T05:29:06.329Z, 41.17
2023-11-06T05:30:06.302Z, 40.73
2023-11-06T05:31:06.357Z, 40.43
2023-11-06T05:32:06.403Z, 40.14
2023-11-06T05:33:06.420Z, 39.79
2023-11-06T05:34:06.374Z, 39.47
2023-11-06T05:35:06.333Z, 39.11
2023-11-06T05:36:06.357Z, 38.61
2023-11-06T05:37:06.349Z, 38.20
2023-11-06T05:38:06.453Z, 37.85
2023-11-06T05:39:06.403Z, 37.49
2023-11-06T05:40:06.452Z, 37.07
2023-11-06T05:41:06.468Z, 36.63
2023-11-06T05:42:06.439Z, 36.16
2023-11-06T05:43:06.502Z, 35.66
2023-11-06T05:44:06.460Z, 35.15
2023-11-06T05:45:06.559Z, 34.58
2023-11-06T05:46:06.517Z, 34.08
2023-11-06T05:47:06.577Z, 38.32
2023-11-06T05:48:06.717Z, 45.69
2023-11-06T05:49:06.523Z, 49.36
2023-11-06T05:50:06.567Z, 48.29
2023-11-06T05:51:06.548Z, 46.86
2023-11-06T05:52:06.550Z, 46.21
2023-11-06T05:53:06.581Z, 45.73
2023-11-06T05:54:06.593Z, 45.18
2023-11-06T05:55:06.610Z, 44.66
2023-11-06T05:56:06.701Z, 44.18
2023-11-06T05:57:06.661Z, 43.74
2023-11-06T05:58:06.642Z, 43.28
2023-11-06T05:59:06.721Z, 42.83
2023-11-06T06:00:06.683Z, 42.42
2023-11-06T06:01:06.690Z, 42.03
2023-11-06T06:02:06.699Z, 41.65
2023-11-06T06:03:06.789Z, 41.31
2023-11-06T06:04:06.746Z, 41.01
2023-11-06T06:05:06.770Z, 40.70
2023-11-06T06:06:06.890Z, 40.34
2023-11-06T06:07:06.773Z, 39.93
2023-11-06T06:08:06.812Z, 39.53
2023-11-06T06:09:06.789Z, 39.16
2023-11-06T06:10:06.762Z, 38.81
2023-11-06T06:11:06.789Z, 38.48
2023-11-06T06:12:06.818Z, 38.12
2023-11-06T06:13:06.901Z, 37.76
2023-11-06T06:14:06.904Z, 37.37
2023-11-06T06:15:06.904Z, 36.94
2023-11-06T06:16:06.892Z, 36.80
2023-11-06T06:17:07.051Z, 39.23
2023-11-06T06:18:07.034Z, 43.90
2023-11-06T06:19:06.943Z, 47.20
2023-11-06T06:20:08.093Z, 50.70
2023-11-06T06:21:06.930Z, 54.46
2023-11-06T06:22:06.924Z, 58.55
2023-11-06T06:23:06.988Z, 66.87
2023-11-06T06:24:07.066Z, 60.92
2023-11-06T06:25:06.987Z, 52.64
2023-11-06T06:26:07.048Z, 53.77
2023-11-06T06:27:07.009Z, 54.90
2023-11-06T06:28:07.014Z, 56.75
2023-11-06T06:29:08.729Z, 59.41
2023-11-06T06:30:07.079Z, 65.31
2023-11-06T06:31:07.099Z, 62.78
2023-11-06T06:32:07.084Z, 53.18
2023-11-06T06:33:07.154Z, 54.07
2023-11-06T06:34:07.085Z, 55.42
2023-11-06T06:35:07.163Z, 57.36
2023-11-06T06:36:07.171Z, 59.29
2023-11-06T06:37:07.104Z, 60.48
2023-11-06T06:38:07.235Z, 61.45
2023-11-06T06:39:07.160Z, 62.90
2023-11-06T06:40:07.256Z, 64.87
2023-11-06T06:41:07.238Z, 64.80
2023-11-06T06:42:07.186Z, 64.28
2023-11-06T06:43:07.258Z, 63.59
2023-11-06T06:44:07.271Z, 63.35
2023-11-06T06:45:07.277Z, 63.10
2023-11-06T06:46:07.256Z, 62.12
2023-11-06T06:47:07.271Z, 61.18
2023-11-06T06:48:07.340Z, 60.64
2023-11-06T06:49:07.292Z, 60.16
2023-11-06T06:50:07.354Z, 59.58
2023-11-06T06:51:07.337Z, 58.82
2023-11-06T06:52:07.328Z, 58.07
2023-11-06T06:53:07.383Z, 57.44
2023-11-06T06:54:07.325Z, 56.88
2023-11-06T06:55:07.388Z, 56.35
2023-11-06T06:56:07.409Z, 55.81
2023-11-06T06:57:07.396Z, 55.31
2023-11-06T06:58:07.395Z, 54.86
2023-11-06T06:59:07.387Z, 54.38
2023-11-06T07:00:07.386Z, 53.94
2023-11-06T07:01:07.458Z, 53.44
2023-11-06T07:02:07.493Z, 52.99
2023-11-06T07:03:07.523Z, 52.76
2023-11-06T07:04:07.566Z, 52.44
2023-11-06T07:05:07.546Z, 52.06
2023-11-06T07:06:07.613Z, 51.73
2023-11-06T07:07:07.571Z, 51.42
2023-11-06T07:08:07.517Z, 51.16
2023-11-06T07:09:07.564Z, 50.89
2023-11-06T07:11:37.105Z, 50.48
2023-11-06T07:12:07.545Z, 50.23
2023-11-06T07:13:07.545Z, 50.03
2023-11-06T07:14:07.600Z, 49.85
2023-11-06T07:15:07.560Z, 49.67
2023-11-06T07:16:07.637Z, 49.47
2023-11-06T07:17:07.646Z, 49.31
2023-11-06T07:18:07.618Z, 49.17
2023-11-06T07:19:07.811Z, 48.98
2023-11-06T07:20:07.689Z, 48.83
2023-11-06T07:21:07.723Z, 48.69
2023-11-06T07:22:07.697Z, 48.53
2023-11-06T07:23:07.740Z, 48.33
2023-11-06T07:24:07.692Z, 48.19
2023-11-06T07:25:07.693Z, 48.11
2023-11-06T07:26:07.709Z, 47.97
2023-11-06T07:27:07.710Z, 47.81
2023-11-06T07:28:07.779Z, 47.67
2023-11-06T07:29:07.794Z, 47.52
2023-11-06T07:30:07.857Z, 47.35
2023-11-06T07:31:07.803Z, 47.25
2023-11-06T07:32:07.886Z, 47.11
2023-11-06T07:33:07.947Z, 47.00
2023-11-06T07:34:07.849Z, 46.85
2023-11-06T07:35:07.907Z, 46.79
2023-11-06T07:36:07.834Z, 46.65
2023-11-06T07:37:07.917Z, 46.50
2023-11-06T07:38:08.070Z, 46.39
2023-11-06T07:39:07.935Z, 46.26
2023-11-06T07:40:07.998Z, 46.17
2023-11-06T07:41:07.922Z, 46.11
2023-11-06T07:42:07.989Z, 46.01
2023-11-06T07:43:07.975Z, 45.91
2023-11-06T07:44:07.973Z, 45.78
2023-11-06T07:45:07.963Z, 45.65
2023-11-06T07:46:07.955Z, 45.51
2023-11-06T07:47:08.071Z, 45.46
2023-11-06T07:48:08.092Z, 45.38
2023-11-06T07:49:08.047Z, 45.33
2023-11-06T07:50:08.033Z, 45.22
2023-11-06T07:51:07.995Z, 45.08
2023-11-06T07:52:08.045Z, 45.05
2023-11-06T07:53:08.095Z, 44.99
2023-11-06T07:54:08.035Z, 44.89
2023-11-06T07:55:08.037Z, 44.77
2023-11-06T07:56:08.127Z, 44.72
2023-11-06T07:57:08.171Z, 44.66
2023-11-06T07:58:08.127Z, 44.55
2023-11-06T07:59:08.222Z, 44.46
2023-11-06T08:00:08.847Z, 44.36
2023-11-06T08:01:08.179Z, 44.31
2023-11-06T08:02:08.174Z, 44.26
2023-11-06T08:03:08.304Z, 44.17
2023-11-06T08:04:08.229Z, 44.08
2023-11-06T08:05:08.352Z, 44.00
2023-11-06T08:06:08.283Z, 43.91
2023-11-06T08:07:08.233Z, 43.88
2023-11-06T08:08:08.251Z, 43.80
2023-11-06T08:09:08.244Z, 43.74
2023-11-06T08:10:08.317Z, 43.66
2023-11-06T08:11:08.301Z, 43.59
2023-11-06T08:12:08.918Z, 43.54
2023-11-06T08:13:08.283Z, 43.45
2023-11-06T08:14:08.379Z, 43.38
2023-11-06T08:15:08.407Z, 43.34
2023-11-06T08:16:08.711Z, 43.30
2023-11-06T08:17:08.485Z, 43.24
2023-11-06T08:18:08.386Z, 43.15
2023-11-06T08:19:08.420Z, 43.13
2023-11-06T08:20:08.418Z, 43.02
2023-11-06T08:21:08.433Z, 42.95
2023-11-06T08:22:08.409Z, 42.92
2023-11-06T08:23:08.537Z, 42.88
2023-11-06T08:24:08.421Z, 42.85
2023-11-06T08:25:08.415Z, 42.75
2023-11-06T08:26:08.456Z, 42.70
2023-11-06T08:27:08.456Z, 42.65
2023-11-06T08:28:08.458Z, 42.59
2023-11-06T08:29:08.523Z, 42.52
2023-11-06T08:30:08.521Z, 42.48
2023-11-06T08:31:09.287Z, 42.49
2023-11-06T08:32:08.613Z, 42.42
2023-11-06T08:33:08.728Z, 42.34
2023-11-06T08:34:08.644Z, 42.29
2023-11-06T08:35:08.601Z, 42.23
2023-11-06T08:36:08.583Z, 42.17
2023-11-06T08:37:08.640Z, 42.12
2023-11-06T08:38:08.631Z, 42.08
2023-11-06T08:39:08.676Z, 42.03
2023-11-06T08:40:08.660Z, 41.94
2023-11-06T08:41:08.835Z, 41.92
2023-11-06T08:42:08.650Z, 41.86
2023-11-06T08:43:08.673Z, 41.82
2023-11-06T08:44:08.740Z, 41.79
2023-11-06T08:45:08.654Z, 41.81
2023-11-06T08:46:08.760Z, 41.75
2023-11-06T08:47:08.738Z, 41.69
2023-11-06T08:48:08.841Z, 41.62
2023-11-06T08:49:08.755Z, 41.60
2023-11-06T08:50:08.778Z, 41.53
2023-11-06T08:51:08.779Z, 41.52
2023-11-06T08:52:08.779Z, 41.41
2023-11-06T08:53:08.894Z, 41.34
2023-11-06T08:54:08.800Z, 41.33
2023-11-06T08:55:08.900Z, 41.33
2023-11-06T08:56:08.940Z, 41.31
2023-11-06T08:57:08.858Z, 41.25
2023-11-06T08:58:08.842Z, 41.14
2023-11-06T08:59:09.551Z, 41.10
2023-11-06T09:00:08.860Z, 41.05
2023-11-06T09:01:08.872Z, 41.03
2023-11-06T09:02:08.998Z, 41.00
2023-11-06T09:03:08.986Z, 41.01
2023-11-06T09:04:08.971Z, 40.99
2023-11-06T09:05:08.980Z, 40.93
2023-11-06T09:06:09.029Z, 40.84
2023-11-06T09:07:08.989Z, 40.79
2023-11-06T09:08:08.998Z, 40.81
2023-11-06T09:09:08.975Z, 40.80
2023-11-06T09:10:09.636Z, 40.74
2023-11-06T09:11:09.018Z, 40.74
2023-11-06T09:12:08.999Z, 40.75
2023-11-06T09:13:09.040Z, 40.70
2023-11-06T09:14:11.892Z, 40.64
2023-11-06T09:15:09.065Z, 40.59
2023-11-06T09:16:09.061Z, 40.51
2023-11-06T09:17:09.112Z, 40.50
2023-11-06T09:18:09.280Z, 40.46
2023-11-06T09:19:09.284Z, 40.38
2023-11-06T09:20:09.402Z, 40.34
2023-11-06T09:21:09.164Z, 40.34
2023-11-06T09:22:09.170Z, 40.28
2023-11-06T09:23:09.210Z, 40.28
2023-11-06T09:24:09.186Z, 40.25
2023-11-06T09:25:09.211Z, 40.19
2023-11-06T09:26:11.490Z, 40.19
2023-11-06T09:27:09.291Z, 40.16
2023-11-06T09:28:09.294Z, 40.13
2023-11-06T09:29:09.395Z, 40.06
2023-11-06T09:30:09.281Z, 40.00
2023-11-06T09:31:09.309Z, 39.98
2023-11-06T09:32:12.302Z, 40.01
2023-11-06T09:33:09.402Z, 39.91
2023-11-06T09:34:09.355Z, 39.84
2023-11-06T09:35:09.353Z, 39.82
2023-11-06T09:36:09.360Z, 39.81
2023-11-06T09:37:09.347Z, 39.77
2023-11-06T09:38:09.809Z, 39.72
2023-11-06T09:39:09.354Z, 39.70
2023-11-06T09:40:09.353Z, 39.64
2023-11-06T09:41:09.384Z, 39.70
2023-11-06T09:42:09.376Z, 39.65
2023-11-06T09:43:09.385Z, 39.64
2023-11-06T09:44:09.446Z, 39.61
2023-11-06T09:45:09.533Z, 39.54
2023-11-06T09:46:11.453Z, 39.54
2023-11-06T09:47:09.599Z, 39.55
2023-11-06T09:48:09.594Z, 39.48
2023-11-06T09:49:09.563Z, 39.42
2023-11-06T09:50:09.520Z, 39.41
2023-11-06T09:51:09.557Z, 39.38
2023-11-06T09:52:10.148Z, 39.34
2023-11-06T09:53:09.537Z, 39.34
2023-11-06T09:54:09.540Z, 39.28
2023-11-06T09:55:09.840Z, 39.26
2023-11-06T09:56:09.610Z, 39.22
2023-11-06T09:57:09.604Z, 39.24
2023-11-06T09:58:11.537Z, 39.24
2023-11-06T09:59:09.629Z, 39.19
2023-11-06T10:00:09.581Z, 39.22
2023-11-06T10:01:09.648Z, 39.18
2023-11-06T10:02:09.685Z, 39.10
2023-11-06T10:03:09.746Z, 39.08
2023-11-06T10:04:09.677Z, 39.07
2023-11-06T10:05:09.710Z, 38.98
2023-11-06T10:06:09.686Z, 38.93
2023-11-06T10:07:09.748Z, 38.90
2023-11-06T10:08:09.757Z, 38.89
2023-11-06T10:09:09.715Z, 38.88
2023-11-06T10:10:09.710Z, 38.84
2023-11-06T10:11:09.787Z, 38.81
2023-11-06T10:12:09.730Z, 38.83
2023-11-06T10:13:09.743Z, 38.82
2023-11-06T10:14:09.859Z, 38.78
2023-11-06T10:15:09.816Z, 38.75
2023-11-06T10:16:09.811Z, 38.69
2023-11-06T10:17:09.890Z, 38.66
2023-11-06T10:18:09.893Z, 38.65
2023-11-06T10:19:09.934Z, 38.66
2023-11-06T10:20:11.360Z, 38.64
2023-11-06T10:21:09.860Z, 38.61
2023-11-06T10:22:09.854Z, 38.61
2023-11-06T10:23:09.864Z, 38.55
2023-11-06T10:24:09.937Z, 38.50
2023-11-06T10:25:09.936Z, 38.50
2023-11-06T10:26:10.724Z, 38.49
2023-11-06T10:27:09.922Z, 38.44
2023-11-06T10:28:09.963Z, 38.43
2023-11-06T10:29:09.989Z, 38.39
2023-11-06T10:30:09.974Z, 38.39
2023-11-06T10:31:09.994Z, 38.37
2023-11-06T10:32:10.048Z, 38.35
2023-11-06T10:33:10.134Z, 38.32
2023-11-06T10:34:10.130Z, 38.30
2023-11-06T10:35:10.673Z, 38.27
2023-11-06T10:36:10.104Z, 38.26
2023-11-06T10:37:10.076Z, 38.23
2023-11-06T10:38:10.648Z, 38.29
2023-11-06T10:39:11.426Z, 38.23
2023-11-06T10:40:10.106Z, 38.20
2023-11-06T10:41:10.096Z, 38.21
2023-11-06T10:42:10.203Z, 38.17
2023-11-06T10:43:10.152Z, 38.14
2023-11-06T10:44:10.201Z, 38.12
2023-11-06T10:45:10.170Z, 38.08
2023-11-06T10:46:10.176Z, 38.03
2023-11-06T10:47:10.785Z, 37.99
2023-11-06T10:48:10.300Z, 37.97
2023-11-06T10:49:10.245Z, 37.95
2023-11-06T10:50:10.198Z, 37.99
2023-11-06T10:51:10.192Z, 37.91
2023-11-06T10:52:10.221Z, 37.88
2023-11-06T10:53:10.329Z, 37.83
2023-11-06T10:54:10.246Z, 37.89
2023-11-06T10:55:18.921Z, 37.84
2023-11-06T10:56:10.362Z, 37.85
2023-11-06T10:57:10.338Z, 37.79
2023-11-06T10:58:10.293Z, 37.74
2023-11-06T10:59:10.356Z, 37.72
2023-11-06T11:00:10.325Z, 37.68
2023-11-06T11:01:10.315Z, 37.66
2023-11-06T11:02:10.516Z, 37.67
2023-11-06T11:03:10.512Z, 37.66
2023-11-06T11:04:10.498Z, 37.62
2023-11-06T11:05:10.559Z, 37.60
2023-11-06T11:06:10.496Z, 37.54
2023-11-06T11:07:10.454Z, 37.51
2023-11-06T11:08:10.539Z, 37.46
2023-11-06T11:09:10.421Z, 37.46
2023-11-06T11:10:10.490Z, 37.50
2023-11-06T11:11:11.640Z, 37.49
2023-11-06T11:12:10.538Z, 37.44
2023-11-06T11:13:10.900Z, 37.44
2023-11-06T11:14:10.541Z, 37.42
2023-11-06T11:15:10.504Z, 37.37
2023-11-06T11:16:10.492Z, 37.39
2023-11-06T11:17:10.695Z, 37.40
2023-11-06T11:18:11.165Z, 37.40
2023-11-06T11:19:10.698Z, 37.34
2023-11-06T11:20:10.756Z, 37.30
2023-11-06T11:21:10.593Z, 37.32
2023-11-06T11:22:10.901Z, 37.32
2023-11-06T11:23:10.678Z, 37.26
2023-11-06T11:24:10.631Z, 37.21
2023-11-06T11:25:10.631Z, 37.21
2023-11-06T11:26:10.955Z, 37.17
2023-11-06T11:27:10.654Z, 37.17
2023-11-06T11:28:10.742Z, 37.15
2023-11-06T11:29:11.020Z, 37.10
2023-11-06T11:30:11.442Z, 37.12
2023-11-06T11:31:10.719Z, 37.09
2023-11-06T11:32:10.766Z, 37.05
2023-11-06T11:33:10.824Z, 37.02
2023-11-06T11:34:11.674Z, 37.02
2023-11-06T11:35:10.744Z, 36.99
2023-11-06T11:36:11.056Z, 36.93
2023-11-06T11:37:10.793Z, 36.92
2023-11-06T11:38:10.904Z, 36.95
2023-11-06T11:39:12.579Z, 36.97
2023-11-06T11:40:10.793Z, 36.92
2023-11-06T11:41:10.840Z, 36.91
2023-11-06T11:42:10.857Z, 36.88
2023-11-06T11:43:10.862Z, 36.85
2023-11-06T11:44:10.897Z, 36.84
2023-11-06T11:45:10.887Z, 36.80
2023-11-06T11:46:10.882Z, 36.79
2023-11-06T11:47:10.966Z, 36.79
2023-11-06T11:48:10.964Z, 36.75
2023-11-06T11:49:11.030Z, 36.72
2023-11-06T11:50:10.971Z, 36.74
2023-11-06T11:51:11.004Z, 36.78
2023-11-06T11:52:10.994Z, 36.77
2023-11-06T11:53:11.021Z, 36.74
2023-11-06T11:54:11.008Z, 36.66
2023-11-06T11:55:11.008Z, 36.66
2023-11-06T11:56:11.128Z, 36.68
2023-11-06T11:57:11.082Z, 36.62
2023-11-06T11:58:11.148Z, 36.58
2023-11-06T11:59:11.126Z, 36.55
2023-11-06T12:00:11.132Z, 36.51
2023-11-06T12:01:11.167Z, 36.52
2023-11-06T12:02:11.152Z, 36.49
2023-11-06T12:03:11.537Z, 36.47
2023-11-06T12:04:11.190Z, 36.47
2023-11-06T12:05:11.188Z, 36.41
2023-11-06T12:06:11.236Z, 36.39
2023-11-06T12:07:11.154Z, 36.41
2023-11-06T12:08:11.155Z, 36.36
2023-11-06T12:09:11.264Z, 36.38
2023-11-06T12:10:11.239Z, 36.37
2023-11-06T12:11:11.479Z, 36.30
2023-11-06T12:12:11.268Z, 36.32
2023-11-06T12:13:11.267Z, 36.25
2023-11-06T12:14:11.274Z, 36.25
2023-11-06T12:15:11.277Z, 36.23
2023-11-06T12:16:11.282Z, 36.19
2023-11-06T12:17:14.626Z, 36.17
2023-11-06T12:18:12.046Z, 36.17
2023-11-06T12:19:11.530Z, 36.13
2023-11-06T12:20:11.679Z, 36.14
2023-11-06T12:21:11.366Z, 36.08
2023-11-06T12:22:11.427Z, 36.06
2023-11-06T12:23:11.454Z, 36.10
2023-11-06T12:24:11.455Z, 36.10
2023-11-06T12:25:11.423Z, 36.05
2023-11-06T12:26:11.757Z, 36.02
2023-11-06T12:27:11.464Z, 36.00
2023-11-06T12:28:12.455Z, 35.99
2023-11-06T12:29:11.504Z, 36.05